Time;durP1;ratioP1;P1;durP2;ratioP2;P2;SDS_P1;SDS_P2;PMS_P1;PMS_P2;Temp;Humidity;BMP_temperature;BMP_pressure;BME280_temperature;BME280_humidity;BME280_pressure;Samples;Min_cycle;Max_cycle;Signal;HPM_P1;HPM_P2
2022/02/28 00:02:10;;;;;;;6.50;4.33;;;;;;;1.97;80.51;103106.66;5134124;27;20023;-36
2022/02/28 00:04:35;;;;;;;7.63;4.50;;;;;;;1.94;80.14;103098.03;5134579;27;20023;-36
2022/02/28 00:07:00;;;;;;;7.90;4.37;;;;;;;1.77;77.61;103104.69;5133729;27;20095;-36
2022/02/28 00:09:25;;;;;;;7.03;4.73;;;;;;;1.88;78.60;103111.84;5134320;28;20015;-36
2022/02/28 00:11:51;;;;;;;5.83;4.27;;;;;;;1.80;77.22;103110.59;5137105;27;20027;-36
2022/02/28 00:14:16;;;;;;;7.90;4.63;;;;;;;1.85;79.78;103112.91;5138017;27;20029;-36
2022/02/28 00:16:41;;;;;;;6.37;3.73;;;;;;;1.85;78.85;103112.91;5138320;27;20063;-36
2022/02/28 00:19:07;;;;;;;6.23;3.97;;;;;;;1.85;77.54;103109.41;5137956;27;20019;-36
2022/02/28 00:21:33;;;;;;;6.70;4.30;;;;;;;1.78;78.19;103109.03;5138263;27;20494;-36
2022/02/28 00:23:59;;;;;;;6.47;4.35;;;;;;;1.70;77.79;103093.63;5137865;27;20030;-36
2022/02/28 00:26:24;;;;;;;8.15;5.60;;;;;;;1.82;77.16;103107.84;5137526;27;20441;-36
2022/02/28 00:28:49;;;;;;;7.83;6.20;;;;;;;1.84;77.51;103105.03;5137390;27;20023;-36
2022/02/28 00:31:15;;;;;;;8.33;6.10;;;;;;;1.73;78.89;103088.06;5138233;27;20366;-36
2022/02/28 00:33:40;;;;;;;9.33;7.47;;;;;;;1.78;76.85;103106.38;5138423;27;20020;-36
2022/02/28 00:36:06;;;;;;;12.57;8.63;;;;;;;1.71;76.74;103103.34;5138046;27;20039;-35
2022/02/28 00:38:33;;;;;;;10.10;7.95;;;;;;;1.78;79.52;103101.03;5137245;27;20076;-35
2022/02/28 00:40:58;;;;;;;10.85;8.00;;;;;;;1.78;76.92;103099.22;5138179;27;20289;-35
2022/02/28 00:43:24;;;;;;;9.30;7.67;;;;;;;1.80;77.14;103104.44;5137112;27;20156;-35
2022/02/28 00:45:49;;;;;;;10.13;6.47;;;;;;;1.63;76.73;103072.88;5138177;27;20024;-35
2022/02/28 00:48:14;;;;;;;8.33;6.13;;;;;;;1.77;76.38;103104.69;5137356;27;20031;-36
2022/02/28 00:50:40;;;;;;;6.73;5.43;;;;;;;1.78;76.36;103101.88;5137811;27;20371;-36
2022/02/28 00:53:05;;;;;;;7.77;5.40;;;;;;;1.75;75.48;103098.59;5137118;27;20027;-36
2022/02/28 00:55:31;;;;;;;5.63;4.40;;;;;;;1.65;74.85;103095.78;5137115;27;20019;-35
2022/02/28 00:57:56;;;;;;;6.55;4.05;;;;;;;1.73;75.17;103103.22;5137369;27;20031;-36
2022/02/28 01:00:22;;;;;;;5.13;3.90;;;;;;;1.65;75.00;103085.13;5136852;27;20064;-36
2022/02/28 01:02:48;;;;;;;6.72;3.70;;;;;;;1.73;75.46;103105.88;5136838;27;20044;-35
2022/02/28 01:05:17;;;;;;;5.35;3.72;;;;;;;1.78;76.06;103103.72;5136999;27;20038;-35
2022/02/28 01:07:43;;;;;;;5.53;3.67;;;;;;;1.57;75.02;103068.03;5137632;27;20134;-36
2022/02/28 01:10:11;;;;;;;4.90;3.28;;;;;;;1.81;75.45;103100.81;5137185;27;20058;-36
2022/02/28 01:12:37;;;;;;;5.45;3.45;;;;;;;1.79;75.17;103100.06;5136783;27;20110;-36
2022/02/28 01:15:06;;;;;;;5.03;3.45;;;;;;;1.75;75.25;103098.59;5136860;27;20070;-36
2022/02/28 01:17:31;;;;;;;4.53;3.25;;;;;;;1.69;75.32;103102.59;5136755;27;20058;-36
2022/02/28 01:19:58;;;;;;;6.47;3.20;;;;;;;1.62;75.69;103085.38;5136848;27;20068;-35
2022/02/28 01:22:24;;;;;;;6.55;3.33;;;;;;;1.71;76.25;103100.66;5135623;27;20058;-35
2022/02/28 01:24:49;;;;;;;5.38;3.42;;;;;;;1.54;74.97;103074.44;5137047;27;20070;-35
2022/02/28 01:27:15;;;;;;;6.30;3.40;;;;;;;1.62;75.22;103090.69;5134816;27;20046;-36
2022/02/28 01:29:40;;;;;;;5.27;3.10;;;;;;;1.66;76.98;103097.50;5136758;27;20027;-35
2022/02/28 01:32:06;;;;;;;7.17;3.90;;;;;;;1.52;75.31;103090.56;5136468;27;20168;-36
2022/02/28 01:34:31;;;;;;;5.32;3.75;;;;;;;1.47;75.43;103075.88;5136302;27;20030;-36
2022/02/28 01:36:56;;;;;;;7.37;4.10;;;;;;;1.54;76.34;103083.28;5136487;27;20027;-35
2022/02/28 01:39:22;;;;;;;6.10;3.60;;;;;;;1.46;76.54;103080.34;5136971;27;20065;-35
2022/02/28 01:41:47;;;;;;;5.97;3.20;;;;;;;1.48;76.02;103093.56;5136698;27;20030;-36
2022/02/28 01:44:12;;;;;;;7.77;3.47;;;;;;;1.46;75.48;103091.00;5136414;27;20106;-35
2022/02/28 01:46:39;;;;;;;5.47;3.23;;;;;;;1.41;76.35;103090.50;5136101;27;20464;-36
2022/02/28 01:49:04;;;;;;;;;;;;;;;1.54;76.00;103088.59;5136633;27;20110;-35
2022/02/28 01:51:30;;;;;;;7.57;3.75;;;;;;;1.46;76.39;103084.81;5136180;27;19998;-35
2022/02/28 01:53:55;;;;;;;5.13;3.23;;;;;;;1.28;79.08;103050.59;5135853;27;20075;-35
2022/02/28 01:56:22;;;;;;;4.47;2.93;;;;;;;1.43;77.06;103085.06;5136239;27;20029;-35
2022/02/28 01:58:47;;;;;;;4.65;3.25;;;;;;;1.25;76.06;103088.16;5135706;27;20038;-35
2022/02/28 02:01:13;;;;;;;5.45;3.22;;;;;;;1.16;75.63;103094.16;5136340;27;20455;-35
2022/02/28 02:03:39;;;;;;;5.28;3.42;;;;;;;1.14;76.86;103089.94;5136028;27;20026;-35
2022/02/28 02:06:07;;;;;;;5.27;2.90;;;;;;;1.15;77.96;103096.94;5135967;27;20102;-35
2022/02/28 02:08:33;;;;;;;6.22;3.95;;;;;;;1.20;78.56;103100.13;5136066;27;20281;-35
2022/02/28 02:11:00;;;;;;;4.43;3.30;;;;;;;1.09;77.75;103084.94;5135836;27;20027;-35
2022/02/28 02:13:26;;;;;;;8.20;4.18;;;;;;;1.15;77.52;103102.28;5135373;27;20070;-35
2022/02/28 02:15:52;;;;;;;6.88;3.47;;;;;;;1.11;76.30;103101.66;5136061;27;20035;-35
2022/02/28 02:18:17;;;;;;;5.78;3.25;;;;;;;1.15;78.73;103105.78;5136277;27;20344;-35
2022/02/28 02:20:43;;;;;;;5.27;3.57;;;;;;;1.24;80.94;103099.78;5136257;27;20027;-35
2022/02/28 02:23:11;;;;;;;5.00;3.40;;;;;;;1.12;79.25;103084.69;5136095;27;20390;-35
2022/02/28 02:25:36;;;;;;;5.63;3.30;;;;;;;1.17;78.21;103095.88;5135828;27;20027;-35
2022/02/28 02:28:05;;;;;;;4.95;3.00;;;;;;;1.24;81.07;103101.59;5134489;27;20038;-36
2022/02/28 02:30:30;;;;;;;7.20;3.22;;;;;;;1.07;77.57;103091.31;5136087;27;20126;-36
2022/02/28 02:32:56;;;;;;;4.77;3.23;;;;;;;0.99;77.23;103075.94;5135076;27;20046;-35
2022/02/28 02:35:21;;;;;;;5.88;3.65;;;;;;;1.06;78.36;103085.16;5134136;27;20304;-35
2022/02/28 02:37:47;;;;;;;5.20;3.10;;;;;;;1.03;78.06;103080.91;5134278;27;20378;-35
2022/02/28 02:40:13;;;;;;;7.85;3.40;;;;;;;0.99;78.43;103082.09;5135225;27;20058;-35
2022/02/28 02:42:39;;;;;;;4.38;3.42;;;;;;;0.90;77.87;103074.78;5134928;27;20539;-35
2022/02/28 02:45:05;;;;;;;5.10;3.07;;;;;;;0.95;77.46;103069.97;5135906;27;20054;-35
2022/02/28 02:47:30;;;;;;;4.97;3.47;;;;;;;0.93;77.36;103079.06;5134660;27;20023;-35
2022/02/28 02:49:55;;;;;;;3.93;3.10;;;;;;;0.83;78.57;103054.91;5134757;27;20100;-35
2022/02/28 02:52:21;;;;;;;4.83;3.17;;;;;;;0.91;79.56;103072.97;5134663;27;20027;-35
2022/02/28 02:54:46;;;;;;;4.10;2.97;;;;;;;0.90;78.65;103072.13;5135849;27;20027;-35
2022/02/28 02:57:12;;;;;;;4.63;3.37;;;;;;;0.85;77.61;103074.28;5133394;27;20459;-35
2022/02/28 02:59:37;;;;;;;4.80;3.23;;;;;;;0.69;78.00;103063.06;5135189;27;20023;-35
2022/02/28 03:02:03;;;;;;;5.10;3.30;;;;;;;0.73;77.66;103085.81;5133531;27;20062;-35
2022/02/28 03:04:28;;;;;;;5.65;3.72;;;;;;;0.70;77.91;103076.25;5135360;27;20480;-35
2022/02/28 03:06:53;;;;;;;6.00;3.70;;;;;;;0.63;78.82;103052.84;5134818;27;20378;-35
2022/02/28 03:09:19;;;;;;;5.10;3.40;;;;;;;0.74;78.67;103080.41;5135548;27;20084;-35
2022/02/28 03:11:46;;;;;;;5.07;3.17;;;;;;;0.58;80.15;103045.19;5134655;27;20034;-35
2022/02/28 03:14:12;;;;;;;4.97;3.55;;;;;;;0.74;78.30;103085.72;5135000;27;20113;-35
2022/02/28 03:16:38;;;;;;;4.85;3.45;;;;;;;0.70;77.71;103078.91;5135211;27;20062;-35
2022/02/28 03:19:04;;;;;;;;;;;;;;;0.80;78.11;103083.56;5135530;27;20031;-35
2022/02/28 03:21:30;;;;;;;4.85;3.03;;;;;;;0.75;81.34;103076.75;5134664;27;19915;-35
2022/02/28 03:23:56;;;;;;;5.55;3.00;;;;;;;0.63;78.20;103074.13;5134319;27;20494;-35
2022/02/28 03:26:21;;;;;;;7.38;3.50;;;;;;;0.74;81.68;103076.88;5134331;27;20119;-35
2022/02/28 03:28:47;;;;;;;6.30;3.30;;;;;;;0.60;79.38;103063.72;5134459;27;20065;-35
2022/02/28 03:31:12;;;;;;;5.40;3.40;;;;;;;0.66;79.98;103069.44;5134795;27;20515;-35
2022/02/28 03:33:38;;;;;;;5.03;3.23;;;;;;;0.57;79.40;103075.44;5134609;27;20034;-35
2022/02/28 03:36:04;;;;;;;4.05;2.95;;;;;;;0.54;78.87;103075.69;5135468;27;20140;-35
2022/02/28 03:38:29;;;;;;;4.05;3.00;;;;;;;0.61;81.56;103066.25;5134377;27;20034;-35
2022/02/28 03:40:54;;;;;;;4.73;2.90;;;;;;;0.50;81.84;103071.53;5135151;27;20027;-35
2022/02/28 03:43:20;;;;;;;4.43;3.17;;;;;;;0.43;80.36;103079.09;5134366;27;20060;-35
2022/02/28 03:45:45;;;;;;;4.37;3.10;;;;;;;0.46;79.50;103086.00;5134474;27;20027;-35
2022/02/28 03:48:11;;;;;;;5.53;3.33;;;;;;;0.32;79.39;103071.03;5134829;27;20353;-35
2022/02/28 03:50:36;;;;;;;5.47;3.15;;;;;;;0.39;81.71;103071.44;5134264;27;20080;-35
2022/02/28 03:53:02;;;;;;;4.70;3.07;;;;;;;0.55;84.04;103079.19;5134451;27;20031;-35
2022/02/28 03:55:27;;;;;;;3.97;2.97;;;;;;;0.54;84.29;103078.34;5134034;27;20076;-36
2022/02/28 03:57:52;;;;;;;4.03;2.97;;;;;;;0.70;85.71;103075.41;5134187;27;20023;-36
2022/02/28 04:00:18;;;;;;;6.03;3.33;;;;;;;0.60;83.34;103080.53;5134267;27;20019;-36
2022/02/28 04:02:43;;;;;;;3.45;2.78;;;;;;;0.45;80.36;103068.34;5132821;28;20037;-36
2022/02/28 04:05:10;;;;;;;4.60;3.50;;;;;;;0.46;82.23;103067.38;5132907;28;20053;-36
2022/02/28 04:07:35;;;;;;;4.72;3.28;;;;;;;0.36;81.83;103077.84;5134605;27;20489;-36
2022/02/28 04:10:01;;;;;;;6.03;3.53;;;;;;;0.27;83.05;103057.19;5134422;27;20023;-36
2022/02/28 04:12:26;;;;;;;6.13;2.87;;;;;;;0.47;86.08;103074.41;5134193;27;20023;-36
2022/02/28 04:14:52;;;;;;;6.55;3.60;;;;;;;0.39;86.49;103050.13;5134380;27;20071;-36
2022/02/28 04:17:18;;;;;;;5.40;3.35;;;;;;;0.28;81.86;103069.53;5133971;27;20027;-36
2022/02/28 04:19:43;;;;;;;5.73;3.60;;;;;;;0.26;83.04;103076.78;5133988;27;20396;-36
2022/02/28 04:22:09;;;;;;;6.27;3.63;;;;;;;0.29;84.63;103073.88;5133612;27;20324;-36
2022/02/28 04:24:34;;;;;;;4.10;3.20;;;;;;;0.28;84.35;103074.84;5133760;27;20477;-36
2022/02/28 04:26:59;;;;;;;4.70;3.43;;;;;;;0.15;83.00;103068.72;5134628;27;20283;-36
2022/02/28 04:29:26;;;;;;;4.30;3.27;;;;;;;0.28;86.23;103068.69;5134238;27;20084;-36
2022/02/28 04:31:51;;;;;;;5.40;3.78;;;;;;;0.16;83.91;103065.09;5134053;27;20015;-36
2022/02/28 04:34:16;;;;;;;5.73;4.13;;;;;;;0.11;81.97;103067.25;5134633;27;20038;-36
2022/02/28 04:36:42;;;;;;;10.03;6.33;;;;;;;0.11;84.68;103070.75;5134532;27;20051;-36
2022/02/28 04:39:08;;;;;;;14.48;8.18;;;;;;;-0.01;84.11;103059.13;5134342;27;20122;-36
2022/02/28 04:41:34;;;;;;;14.40;7.75;;;;;;;-0.28;82.54;103038.00;5133895;27;20050;-36
2022/02/28 04:43:59;;;;;;;12.93;7.30;;;;;;;-0.23;82.19;103069.59;5133754;27;20031;-36
2022/02/28 04:46:24;;;;;;;10.20;6.40;;;;;;;-0.17;84.83;103063.84;5134349;27;20518;-36
2022/02/28 04:48:50;;;;;;;7.67;5.47;;;;;;;-0.28;82.04;103061.09;5133680;27;20280;-36
2022/02/28 04:51:15;;;;;;;7.37;4.73;;;;;;;-0.12;86.58;103058.19;5133796;27;20094;-37
2022/02/28 04:53:41;;;;;;;7.63;4.70;;;;;;;-0.05;87.39;103064.78;5133995;27;20118;-37
2022/02/28 04:56:06;;;;;;;7.37;4.77;;;;;;;-0.23;87.72;103032.38;5134300;27;20030;-36
2022/02/28 04:58:31;;;;;;;7.73;4.80;;;;;;;-0.18;86.88;103046.19;5135933;27;20027;-37
2022/02/28 05:00:57;;;;;;;8.17;4.73;;;;;;;-0.06;87.46;103071.91;5137867;27;20047;-36
2022/02/28 05:03:22;;;;;;;6.43;4.05;;;;;;;-0.26;85.18;103053.84;5137146;27;20050;-36
2022/02/28 05:05:49;;;;;;;5.67;4.27;;;;;;;-0.21;85.49;103067.66;5137848;27;20057;-36
2022/02/28 05:08:15;;;;;;;6.00;3.90;;;;;;;-0.22;87.66;103059.81;5137300;27;20027;-36
2022/02/28 05:10:40;;;;;;;5.88;3.83;;;;;;;-0.18;88.16;103070.13;5136861;27;20034;-36
2022/02/28 05:13:05;;;;;;;4.87;3.50;;;;;;;-0.46;86.13;103041.06;5136912;27;20080;-36
2022/02/28 05:15:31;;;;;;;4.93;3.77;;;;;;;-0.30;85.25;103076.28;5136805;27;20489;-36
2022/02/28 05:17:56;;;;;;;5.47;4.00;;;;;;;-0.33;86.03;103072.03;5136956;27;20027;-36
2022/02/28 05:20:22;;;;;;;6.10;4.37;;;;;;;-0.34;84.81;103072.13;5136530;27;20047;-36
2022/02/28 05:22:47;;;;;;;5.50;3.63;;;;;;;-0.41;85.30;103060.22;5137382;27;20073;-36
2022/02/28 05:25:13;;;;;;;4.37;3.57;;;;;;;-0.41;86.98;103074.34;5137588;27;20030;-36
2022/02/28 05:27:41;;;;;;;5.97;3.97;;;;;;;-0.47;87.03;103074.78;5136746;27;20027;-36
2022/02/28 05:30:08;;;;;;;5.53;3.85;;;;;;;-0.48;87.19;103075.75;5137275;27;20413;-36
2022/02/28 05:32:34;;;;;;;6.40;3.80;;;;;;;-0.57;86.15;103079.00;5136533;27;20034;-36
2022/02/28 05:34:59;;;;;;;;;;;;;;;-0.41;85.18;103070.84;5137546;27;20047;-36
2022/02/28 05:37:25;;;;;;;4.63;3.50;;;;;;;-0.55;86.34;103067.31;5136352;27;20314;-36
2022/02/28 05:39:51;;;;;;;5.57;3.50;;;;;;;-0.44;89.13;103082.56;5134531;27;20406;-36
2022/02/28 05:42:16;;;;;;;5.68;3.63;;;;;;;-0.47;88.56;103076.59;5136290;27;20035;-36
2022/02/28 05:44:41;;;;;;;4.37;3.60;;;;;;;-0.52;87.61;103080.41;5136500;27;20146;-36
2022/02/28 05:47:07;;;;;;;6.87;3.70;;;;;;;-0.34;90.03;103082.75;5136110;27;20035;-36
2022/02/28 05:49:32;;;;;;;5.63;3.93;;;;;;;-0.54;86.80;103089.41;5136404;27;20463;-36
2022/02/28 05:51:58;;;;;;;4.70;3.50;;;;;;;-0.55;88.24;103079.75;5136008;27;20139;-36
2022/02/28 05:54:23;;;;;;;6.23;4.00;;;;;;;-0.51;88.92;103091.88;5136513;27;20049;-36
2022/02/28 05:56:48;;;;;;;8.93;4.13;;;;;;;-0.55;87.98;103103.66;5136152;27;20268;-36
2022/02/28 05:59:14;;;;;;;5.97;3.53;;;;;;;-0.60;88.13;103084.53;5136778;27;20035;-36
2022/02/28 06:01:39;;;;;;;5.37;3.63;;;;;;;-0.43;90.03;103100.19;5136055;27;20106;-36
2022/02/28 06:04:05;;;;;;;6.67;4.20;;;;;;;-0.68;86.58;103094.81;5136329;27;20023;-36
2022/02/28 06:06:31;;;;;;;7.18;3.97;;;;;;;-0.72;87.32;103090.69;5136276;27;20387;-36
2022/02/28 06:08:56;;;;;;;7.13;3.70;;;;;;;-0.58;89.62;103098.59;5135629;27;20035;-36
2022/02/28 06:11:22;;;;;;;4.65;3.50;;;;;;;-0.60;89.72;103095.16;5135791;27;20069;-36
2022/02/28 06:13:47;;;;;;;5.28;3.95;;;;;;;-0.69;88.56;103101.94;5135742;27;20057;-34
2022/02/28 06:16:13;;;;;;;4.90;3.70;;;;;;;-0.66;88.91;103108.84;5136371;27;20031;-35
2022/02/28 06:18:38;;;;;;;7.83;4.00;;;;;;;-0.64;89.06;103107.78;5135747;27;20439;-35
2022/02/28 06:21:04;;;;;;;6.83;3.70;;;;;;;-0.76;88.15;103116.59;5135688;27;20033;-35
2022/02/28 06:23:30;;;;;;;5.18;3.78;;;;;;;-0.96;87.52;103086.03;5135644;27;20035;-35
2022/02/28 06:25:56;;;;;;;4.97;3.47;;;;;;;-0.70;89.51;103110.00;5135535;27;20440;-35
2022/02/28 06:28:21;;;;;;;6.32;4.20;;;;;;;-0.57;90.51;103111.75;5135548;27;20045;-35
2022/02/28 06:30:47;;;;;;;5.30;3.70;;;;;;;-0.53;91.19;103117.72;5135218;27;20491;-35
2022/02/28 06:33:12;;;;;;;5.93;3.90;;;;;;;-0.61;90.23;103112.06;5135367;27;20084;-35
2022/02/28 06:35:38;;;;;;;7.23;4.40;;;;;;;-0.72;87.63;103104.81;5136100;27;20051;-35
2022/02/28 06:38:04;;;;;;;8.03;4.23;;;;;;;-0.80;86.63;103121.25;5135518;27;20148;-35
2022/02/28 06:40:29;;;;;;;;;;;;;;;-0.68;87.25;103116.06;5136598;27;20027;-35
2022/02/28 06:42:55;;;;;;;8.40;3.97;;;;;;;-0.61;90.01;103125.34;5135243;27;20373;-35
2022/02/28 06:45:24;;;;;;;8.10;3.60;;;;;;;-0.47;92.20;103130.59;5135583;27;20035;-35
2022/02/28 06:47:50;;;;;;;5.20;3.72;;;;;;;-0.54;90.59;103123.97;5135131;27;20031;-35
2022/02/28 06:50:15;;;;;;;6.05;4.80;;;;;;;-0.47;91.12;103124.44;5135154;27;20027;-35
2022/02/28 06:52:41;;;;;;;5.00;4.00;;;;;;;-0.74;90.03;103088.09;5133256;27;20034;-35
2022/02/28 06:55:06;;;;;;;5.27;4.17;;;;;;;-0.59;90.53;103120.78;5134808;27;20076;-35
2022/02/28 06:57:32;;;;;;;4.60;3.47;;;;;;;-0.53;91.33;103120.38;5134971;27;20027;-35
2022/02/28 06:59:57;;;;;;;8.68;4.15;;;;;;;-0.51;91.51;103123.78;5135500;27;20023;-35
2022/02/28 07:02:23;;;;;;;7.47;5.07;;;;;;;-0.54;90.32;103124.84;5134625;27;20118;-35
2022/02/28 07:04:48;;;;;;;8.00;4.60;;;;;;;-0.46;89.96;103128.78;5134881;27;20481;-35
2022/02/28 07:07:16;;;;;;;6.83;4.87;;;;;;;-0.50;88.53;103138.75;5134801;27;20033;-35
2022/02/28 07:09:43;;;;;;;6.47;4.35;;;;;;;-0.55;87.74;103127.59;5135131;27;20375;-35
2022/02/28 07:12:12;;;;;;;5.43;4.20;;;;;;;-0.27;91.04;103122.13;5134363;27;20103;-35
2022/02/28 07:14:38;;;;;;;7.25;4.28;;;;;;;-0.28;91.61;103109.78;5135293;27;20042;-35
2022/02/28 07:17:04;;;;;;;7.97;4.97;;;;;;;-0.22;89.51;103135.09;5134395;27;20076;-35
2022/02/28 07:19:29;;;;;;;6.90;4.67;;;;;;;-0.05;91.26;103126.84;5134765;27;20027;-35
2022/02/28 07:21:56;;;;;;;8.63;5.65;;;;;;;-0.14;88.83;103123.97;5133766;27;20034;-35
2022/02/28 07:24:21;;;;;;;;;;;;;;;0.02;88.71;103126.41;5135613;27;20065;-35
2022/02/28 07:26:46;;;;;;;7.30;5.35;;;;;;;-0.11;85.85;103123.72;5134888;27;20323;-35
2022/02/28 07:29:12;;;;;;;8.27;5.67;;;;;;;-0.03;88.75;103108.09;5135195;27;20031;-35
2022/02/28 07:31:37;;;;;;;7.23;4.83;;;;;;;0.10;87.41;103124.91;5134202;27;20071;-35
2022/02/28 07:34:03;;;;;;;8.10;4.80;;;;;;;-0.02;86.21;103112.47;5134820;27;20027;-35
2022/02/28 07:36:28;;;;;;;6.90;4.43;;;;;;;0.18;86.15;103133.19;5134917;27;20134;-35
2022/02/28 07:38:53;;;;;;;7.40;4.90;;;;;;;0.16;84.64;103135.13;5133515;27;20516;-35
2022/02/28 07:41:19;;;;;;;5.70;4.83;;;;;;;0.32;85.90;103128.72;5134161;27;20076;-35
2022/02/28 07:43:44;;;;;;;5.80;4.67;;;;;;;0.37;84.15;103132.75;5134154;27;20139;-35
2022/02/28 07:46:09;;;;;;;6.53;4.37;;;;;;;0.36;83.36;103124.91;5134180;27;20060;-35
2022/02/28 07:48:35;;;;;;;6.70;4.27;;;;;;;0.64;86.13;103132.63;5134059;27;20069;-35
2022/02/28 07:51:00;;;;;;;6.87;5.07;;;;;;;0.65;85.05;103138.78;5134981;27;20027;-35
2022/02/28 07:53:26;;;;;;;7.03;4.63;;;;;;;0.66;83.73;103135.16;5134569;27;20027;-35
2022/02/28 07:55:51;;;;;;;7.63;5.23;;;;;;;0.70;83.00;103137.50;5135176;27;20054;-35
2022/02/28 07:58:16;;;;;;;8.30;5.20;;;;;;;0.80;82.72;103139.50;5134261;27;20033;-35
2022/02/28 08:00:42;;;;;;;8.03;4.67;;;;;;;0.81;81.51;103131.41;5134611;27;20027;-35
2022/02/28 08:03:07;;;;;;;8.47;4.70;;;;;;;0.96;81.17;103151.59;5134258;27;20030;-35
2022/02/28 08:05:32;;;;;;;6.33;4.77;;;;;;;1.18;83.83;103147.38;5134882;27;20023;-35
2022/02/28 08:07:58;;;;;;;4.90;4.30;;;;;;;1.17;81.39;103142.97;5134714;27;20055;-35
2022/02/28 08:10:23;;;;;;;6.43;4.63;;;;;;;1.36;80.75;103150.47;5134592;27;20027;-35
2022/02/28 08:12:49;;;;;;;6.30;4.97;;;;;;;1.38;78.98;103153.88;5134151;27;20023;-35
2022/02/28 08:15:14;;;;;;;6.93;4.78;;;;;;;1.42;79.42;103145.53;5133938;27;20106;-35
2022/02/28 08:17:41;;;;;;;6.53;4.63;;;;;;;1.55;79.22;103164.13;5134132;27;20027;-34
2022/02/28 08:20:07;;;;;;;6.10;4.45;;;;;;;1.64;78.74;103158.09;5134377;27;20026;-35
2022/02/28 08:22:33;;;;;;;5.38;4.20;;;;;;;1.67;77.85;103147.22;5133833;27;20035;-35
2022/02/28 08:24:59;;;;;;;6.17;4.73;;;;;;;1.85;79.40;103158.28;5134107;27;20020;-35
2022/02/28 08:27:25;;;;;;;6.72;4.70;;;;;;;1.87;77.02;103163.53;5134044;27;20034;-35
2022/02/28 08:29:50;;;;;;;6.47;4.63;;;;;;;1.88;77.39;103167.88;5134059;27;20058;-35
2022/02/28 08:32:16;;;;;;;7.27;4.63;;;;;;;1.99;78.08;103165.22;5135972;27;20070;-35
2022/02/28 08:34:42;;;;;;;6.22;4.72;;;;;;;1.98;77.70;103144.84;5136455;27;20132;-35
2022/02/28 08:37:07;;;;;;;5.77;4.37;;;;;;;2.10;78.28;103149.25;5137581;27;20061;-35
2022/02/28 08:39:32;;;;;;;6.33;4.80;;;;;;;2.12;77.03;103146.47;5138186;27;20083;-35
2022/02/28 08:41:58;;;;;;;6.43;4.80;;;;;;;2.24;76.46;103162.34;5137547;27;20031;-35
2022/02/28 08:44:23;;;;;;;6.80;4.50;;;;;;;2.29;76.38;103157.53;5137990;27;20027;-37
2022/02/28 08:46:48;;;;;;;7.27;4.63;;;;;;;2.38;76.69;103158.59;5136102;27;20485;-36
2022/02/28 08:49:17;;;;;;;9.07;4.40;;;;;;;2.44;76.20;103147.47;5137918;27;20451;-36
2022/02/28 08:51:46;;;;;;;8.13;4.50;;;;;;;2.54;75.92;103148.44;5137092;27;20479;-36
2022/02/28 08:54:11;;;;;;;7.80;4.68;;;;;;;2.70;77.68;103140.03;5137485;27;20486;-36
2022/02/28 08:56:38;;;;;;;8.50;4.65;;;;;;;2.72;75.31;103140.75;5137262;27;20027;-36
2022/02/28 08:59:03;;;;;;;6.47;4.47;;;;;;;2.78;75.12;103134.94;5137095;27;20034;-36
2022/02/28 09:01:29;;;;;;;6.00;4.50;;;;;;;2.81;73.94;103139.16;5137979;27;20437;-36
2022/02/28 09:03:54;;;;;;;8.60;5.03;;;;;;;2.85;74.92;103124.59;5137315;27;20033;-36
2022/02/28 09:06:20;;;;;;;9.47;5.10;;;;;;;3.04;74.25;103145.31;5137956;27;20106;-36
2022/02/28 09:08:45;;;;;;;6.43;4.77;;;;;;;3.10;73.96;103134.97;5137367;27;20451;-36
2022/02/28 09:11:11;;;;;;;7.30;4.90;;;;;;;3.24;74.41;103131.16;5137238;27;20031;-35
2022/02/28 09:13:36;;;;;;;6.03;5.23;;;;;;;3.26;73.92;103126.53;5137099;27;20043;-35
2022/02/28 09:16:02;;;;;;;5.67;4.73;;;;;;;3.44;72.96;103137.53;5137889;27;20451;-35
2022/02/28 09:18:28;;;;;;;7.15;4.97;;;;;;;3.52;72.93;103132.41;5136986;27;20273;-35
2022/02/28 09:20:53;;;;;;;7.03;4.55;;;;;;;3.65;72.02;103126.00;5136714;27;20096;-36
2022/02/28 09:23:19;;;;;;;5.83;4.23;;;;;;;3.73;70.67;103136.91;5137440;27;20023;-35
2022/02/28 09:25:44;;;;;;;5.43;4.40;;;;;;;3.76;70.84;103125.94;5136930;27;20101;-36
2022/02/28 09:28:10;;;;;;;6.10;3.93;;;;;;;3.86;70.13;103133.06;5137372;27;20027;-36
2022/02/28 09:30:35;;;;;;;5.80;4.30;;;;;;;3.99;70.18;103127.50;5137373;27;20031;-36
2022/02/28 09:33:01;;;;;;;6.60;4.57;;;;;;;4.02;69.32;103115.69;5136660;27;20498;-36
2022/02/28 09:35:27;;;;;;;5.60;4.80;;;;;;;4.16;69.69;103117.16;5137335;27;20111;-36
2022/02/28 09:37:54;;;;;;;6.45;4.55;;;;;;;4.31;68.54;103134.56;5136833;27;20460;-36
2022/02/28 09:40:25;;;;;;;7.50;4.35;;;;;;;4.39;67.90;103129.38;5136342;27;20447;-36
2022/02/28 09:42:54;;;;;;;5.65;4.30;;;;;;;4.54;67.24;103124.50;5136437;27;20070;-36
2022/02/28 09:45:20;;;;;;;5.85;4.30;;;;;;;4.58;67.05;103110.69;5136436;27;20096;-36
2022/02/28 09:47:46;;;;;;;5.82;4.00;;;;;;;4.75;67.30;103111.03;5136440;27;20031;-36
2022/02/28 09:50:11;;;;;;;5.47;4.13;;;;;;;4.79;65.82;103107.09;5136514;27;20031;-36
2022/02/28 09:52:37;;;;;;;5.80;4.00;;;;;;;4.91;65.94;103104.16;5135960;27;20076;-36
2022/02/28 09:55:03;;;;;;;5.33;4.23;;;;;;;4.99;65.14;103099.94;5136345;27;20031;-36
2022/02/28 09:57:29;;;;;;;5.63;4.22;;;;;;;4.95;64.97;103071.72;5136750;27;20019;-36
2022/02/28 09:59:54;;;;;;;4.65;3.70;;;;;;;5.17;64.67;103082.16;5134965;27;20106;-36
2022/02/28 10:02:20;;;;;;;6.33;4.33;;;;;;;5.23;63.80;103078.09;5136105;27;20031;-36
2022/02/28 10:04:45;;;;;;;6.07;4.03;;;;;;;5.35;64.11;103088.50;5136139;27;20053;-36
2022/02/28 10:07:25;;;;;;;5.50;4.03;;;;;;;5.47;64.70;103086.53;5136254;27;20023;-36
2022/02/28 10:10:12;;;;;;;4.85;3.83;;;;;;;5.53;63.74;103087.81;5135965;27;20027;-36
2022/02/28 10:12:38;;;;;;;5.85;3.85;;;;;;;5.68;61.56;103086.38;5135918;27;20027;-36
2022/02/28 10:15:07;;;;;;;6.30;3.38;;;;;;;5.77;60.62;103088.19;5135599;27;20484;-36
2022/02/28 10:17:45;;;;;;;5.93;3.70;;;;;;;5.93;61.61;103093.81;5134355;27;20390;-36
2022/02/28 10:20:20;;;;;;;6.93;4.20;;;;;;;6.03;60.81;103101.00;5136042;27;20084;-36
2022/02/28 10:22:45;;;;;;;4.82;4.05;;;;;;;6.20;60.51;103094.88;5134512;27;20020;-36
2022/02/28 10:25:28;;;;;;;5.55;3.78;;;;;;;6.31;59.17;103083.94;5134553;27;20061;-36
2022/02/28 10:28:26;;;;;;;5.53;3.55;;;;;;;6.43;58.91;103074.69;5135426;27;20031;-36
2022/02/28 10:30:51;;;;;;;5.15;3.42;;;;;;;6.44;55.00;103071.03;5092702;28;20039;-36
2022/02/28 10:33:16;;;;;;;5.37;3.70;;;;;;;6.61;54.85;103080.09;5092215;28;20038;-36
2022/02/28 10:36:00;;;;;;;5.07;3.70;;;;;;;6.62;53.42;103081.78;5092199;28;20048;-36
2022/02/28 10:38:32;;;;;;;5.13;3.72;;;;;;;6.55;55.33;103053.00;5092350;28;20545;-37
2022/02/28 10:40:59;;;;;;;5.28;3.85;;;;;;;6.72;54.62;103079.03;5092157;28;20069;-36
2022/02/28 10:43:25;;;;;;;5.55;4.30;;;;;;;6.67;54.18;103067.91;5091974;28;20032;-36
2022/02/28 10:45:51;;;;;;;5.07;3.67;;;;;;;6.74;55.06;103066.31;5092339;28;20421;-36
2022/02/28 10:48:16;;;;;;;5.25;4.30;;;;;;;6.69;53.40;103057.84;5091895;28;20047;-37
2022/02/28 10:50:42;;;;;;;5.60;4.00;;;;;;;6.89;55.02;103069.31;5092235;28;20039;-37
2022/02/28 10:53:14;;;;;;;4.90;4.00;;;;;;;7.01;54.95;103075.31;5091815;28;20060;-36
2022/02/28 10:55:41;;;;;;;5.30;4.32;;;;;;;7.08;54.42;103082.63;5091643;28;20411;-36
2022/02/28 10:58:10;;;;;;;8.30;4.10;;;;;;;7.15;55.23;103085.56;5091754;28;20036;-36
2022/02/28 11:01:04;;;;;;;7.45;4.38;;;;;;;7.26;55.68;103079.09;5092461;28;20046;-36
2022/02/28 11:03:45;;;;;;;5.13;4.30;;;;;;;7.28;53.95;103060.97;5091589;28;20032;-36
2022/02/28 11:06:12;;;;;;;5.85;4.20;;;;;;;7.41;53.23;103072.97;5109542;27;20367;-36
2022/02/28 11:08:42;;;;;;;5.13;4.35;;;;;;;7.40;53.92;103054.31;5134446;27;20031;-36
2022/02/28 11:11:10;;;;;;;6.68;4.35;;;;;;;7.49;54.46;103075.75;5135306;27;20059;-36
2022/02/28 11:13:36;;;;;;;5.30;4.20;;;;;;;7.46;51.69;103059.91;5134689;27;20037;-36
2022/02/28 11:16:02;;;;;;;6.45;4.85;;;;;;;7.51;52.33;103062.13;5135494;27;20106;-35
2022/02/28 11:18:28;;;;;;;6.93;4.50;;;;;;;7.70;52.97;103069.16;5134432;27;20030;-36
2022/02/28 11:20:56;;;;;;;6.05;4.07;;;;;;;7.76;51.74;103065.88;5134908;27;20031;-35
2022/02/28 11:23:22;;;;;;;5.82;4.13;;;;;;;7.85;52.54;103059.50;5134532;27;20137;-36
2022/02/28 11:25:48;;;;;;;5.78;3.90;;;;;;;7.94;53.08;103063.94;5134232;27;20027;-36
2022/02/28 11:28:17;;;;;;;6.47;3.93;;;;;;;8.02;51.81;103070.41;5135165;27;20023;-35